Hyundai Busan — 5BZN3 — position and weather

sailwx.info

Track history (hours):
 
Tides and Currents Weather Stations Pressure Air Temp Water Temp Dewpoint Dewpoint Depression Visibility Wind Speed Wind Dir Waves Ship Positions

Hyundai Busan

Last reported at 2018-Apr-25 00:00 UTC. Time now 2018-Apr-25 10:50 UTC.
Position N 50°00' E 177°00'.

Length 304 m; draft 13.2 m.

Type: Cargo ship. MMSI: 212350000.

Wind from 300 at 30 knots

Barometer 1004.0 mb
Air temperature 3.0 ° C
Visibility: greater than 5.4 NM
Water temperature 2.0 ° C

Date/timePositionNaut miles runAvg speedWind from/ knotsBaromVisibWave heightAir tempDewpointWater temp
2018-Apr-25 00:00N 50°00' E 177°00'37415.6 300 / 301004.0 5.4 3.0 2.0
2018-Apr-24 00:00N 49°06' E 167°30'48220.1 320 / 301003.010.8 10.0 2.0
2018-Apr-23 00:00N 46°18' E 156°18'0 0.0 270 / 301013.010.8 4.0 2.4
2018-Apr-22 18:00N 46°18' E 156°18'35719.9 320 / 301016.010.8 1.0 1.4
2018-Apr-22 00:00N 43°36' E 148°48'33919.6 050 / 201016.010.8 4.0 2.0
2018-Apr-21 06:42N 41°41' E 141°35'522.7
2018-Apr-21 06:28N 41°41' E 141°28'1021.3
2018-Apr-21 06:00N 41°39' E 141°14'1122.5
2018-Apr-21 05:30N 41°37' E 140°60'1122.9
2018-Apr-21 05:01N 41°33' E 140°46'1223.2
2018-Apr-21 04:31N 41°26' E 140°33'1223.1
2018-Apr-21 04:00N 41°20' E 140°20'57620.8
2018-Apr-20 00:19N 35°37' E 130°29'5620.1
2018-Apr-19 21:32N 35°03' E 129°36'121.4
2018-Apr-19 21:28N 35°02' E 129°34'1221.5
2018-Apr-19 20:56N 34°56' E 129°22'1021.3
2018-Apr-19 20:26N 34°49' E 129°12'1018.6
2018-Apr-19 19:53N 34°48' E 128°60'719.3
2018-Apr-19 19:30N 34°51' E 128°52'1310.0
2018-Apr-19 18:09N 35°04' E 128°49'0 1.3
2018-Apr-19 17:56N 35°04' E 128°50'0 0.0
2018-Apr-19 16:51N 35°04' E 128°50'0 0.0
2018-Apr-19 16:22N 35°04' E 128°50'0 0.0
2018-Apr-19 15:54N 35°04' E 128°50'0 0.0
2018-Apr-19 15:27N 35°04' E 128°50'0 0.0
2018-Apr-19 15:01N 35°04' E 128°50'0 0.0
2018-Apr-19 14:27N 35°04' E 128°50'0 0.0
2018-Apr-19 13:51N 35°04' E 128°50'0 0.0
2018-Apr-19 13:31N 35°04' E 128°50'0 0.0
2018-Apr-19 12:45N 35°04' E 128°50'0 0.0
2018-Apr-19 12:24N 35°04' E 128°50'0 0.0
2018-Apr-19 11:51N 35°04' E 128°50'0 0.0
2018-Apr-19 11:27N 35°04' E 128°50'0 0.0
2018-Apr-19 10:31N 35°04' E 128°50'0 0.0
2018-Apr-19 09:51N 35°04' E 128°50'0 0.0
2018-Apr-19 09:27N 35°04' E 128°50'0 0.0
2018-Apr-19 08:57N 35°04' E 128°50'0 0.0
2018-Apr-19 08:27N 35°04' E 128°50'0 0.0
2018-Apr-19 07:57N 35°04' E 128°50'0 0.0
2018-Apr-19 07:22N 35°04' E 128°50'0 0.0
2018-Apr-19 07:00N 35°04' E 128°50'0 0.0
2018-Apr-19 06:27N 35°04' E 128°50'0 0.0
2018-Apr-19 05:57N 35°04' E 128°50'0 0.0
2018-Apr-19 05:27N 35°04' E 128°50'0 0.0
2018-Apr-19 04:51N 35°04' E 128°50'0 0.0
2018-Apr-19 04:27N 35°04' E 128°50'0 0.0
2018-Apr-19 03:51N 35°04' E 128°50'0 0.0
2018-Apr-19 03:27N 35°04' E 128°50'0 0.0
2018-Apr-19 02:57N 35°04' E 128°50'4 4.8
2018-Apr-19 02:02N 34°60' E 128°48'1 8.9
2018-Apr-19 01:59N 34°59' E 128°49'8 7.3
2018-Apr-19 00:53N 34°52' E 128°51'2414.0
2018-Apr-18 23:09N 34°28' E 128°49'815.4
2018-Apr-18 22:39N 34°22' E 128°42'215.4
2018-Apr-18 22:30N 34°21' E 128°40'1315.5
2018-Apr-18 21:40N 34°11' E 128°30'315.9
2018-Apr-18 21:29N 34°09' E 128°27'815.9
2018-Apr-18 21:00N 34°02' E 128°22'816.4
2018-Apr-18 20:30N 33°56' E 128°16'816.1
2018-Apr-18 19:59N 33°49' E 128°10'816.3
2018-Apr-18 19:30N 33°43' E 128°05'1417.5
2018-Apr-18 18:43N 33°32' E 127°54'418.2
2018-Apr-18 18:29N 33°29' E 127°51'918.4
2018-Apr-18 18:00N 33°23' E 127°43'918.4
2018-Apr-18 17:30N 33°15' E 127°38'1018.2
2018-Apr-18 16:59N 33°07' E 127°31'918.2
2018-Apr-18 16:30N 33°00' E 127°24'918.0
2018-Apr-18 15:58N 32°53' E 127°17'4018.0
2018-Apr-18 13:45N 32°22' E 126°48'917.4
2018-Apr-18 13:14N 32°15' E 126°41'517.7
2018-Apr-18 12:58N 32°12' E 126°37'1017.6
2018-Apr-18 12:23N 32°03' E 126°30'49017.6
2018-Apr-17 08:35N 25°31' E 120°56'819.2
2018-Apr-17 08:10N 25°24' E 120°51'419.3
2018-Apr-17 07:58N 25°21' E 120°49'11017.6
2018-Apr-17 01:43N 23°42' E 119°55'419.1
2018-Apr-17 01:30N 23°38' E 119°55'1019.1
2018-Apr-17 00:59N 23°28' E 119°57'918.5
2018-Apr-17 00:30N 23°19' E 119°57'3017.3
2018-Apr-16 22:45N 22°49' E 119°59'518.0
2018-Apr-16 22:30N 22°45' E 120°02'918.4
2018-Apr-16 22:00N 22°39' E 120°09'816.1
2018-Apr-16 21:30N 22°33' E 120°14'5 9.7
2018-Apr-16 21:00N 22°33' E 120°20'0 0.2
2018-Apr-16 20:24N 22°33' E 120°20'0 0.0
2018-Apr-16 20:00N 22°33' E 120°20'0 0.0
2018-Apr-16 19:30N 22°33' E 120°20'0 0.0
2018-Apr-16 19:00N 22°33' E 120°20'0 0.0
2018-Apr-16 18:26N 22°33' E 120°20'0 0.0
2018-Apr-16 17:57N 22°33' E 120°20'0 0.0
2018-Apr-16 17:30N 22°33' E 120°20'0 0.0
2018-Apr-16 17:00N 22°33' E 120°20'0 0.0
2018-Apr-16 16:30N 22°33' E 120°20'0 0.0
2018-Apr-16 16:00N 22°33' E 120°20'0 0.0
2018-Apr-16 15:30N 22°33' E 120°20'0 0.0
2018-Apr-16 15:00N 22°33' E 120°20'0 0.0
2018-Apr-16 14:27N 22°33' E 120°20'0 0.0
2018-Apr-16 14:00N 22°33' E 120°20'0 0.0
2018-Apr-16 13:30N 22°33' E 120°20'0 0.0
2018-Apr-16 13:00N 22°33' E 120°20'0 0.0
2018-Apr-16 12:30N 22°33' E 120°20'0 0.0
2018-Apr-16 11:54N 22°33' E 120°20'0 0.0
2018-Apr-16 11:30N 22°33' E 120°20'0 0.0
2018-Apr-16 10:57N 22°33' E 120°20'0 0.0
2018-Apr-16 10:30N 22°33' E 120°20'0 0.3
2018-Apr-16 10:00N 22°33' E 120°20'3 6.9
2018-Apr-16 09:30N 22°32' E 120°16'611.9
2018-Apr-16 09:01N 22°30' E 120°10'1019.3
2018-Apr-16 08:30N 22°28' E 119°60'917.5
2018-Apr-16 08:00N 22°26' E 119°50'915.8
2018-Apr-16 07:27N 22°24' E 119°41'1217.6
2018-Apr-16 06:47N 22°21' E 119°29'  
Track history (hours):
 
Tides and Currents Weather Stations Pressure Air Temp Water Temp Dewpoint Dewpoint Depression Visibility Wind Speed Wind Dir Waves Ship Positions

Hyundai Busan

Last reported at 2018-Apr-25 00:00 UTC. Time now 2018-Apr-25 10:50 UTC.
Position N 50°00' E 177°00'.

Length 304 m; draft 13.2 m.

Type: Cargo ship. MMSI: 212350000.

Wind from 300 at 30 knots

Barometer 1004.0 mb
Air temperature 3.0 ° C
Visibility: greater than 5.4 NM
Water temperature 2.0 ° C

Date/timePositionNaut miles runAvg speedWind from/ knotsBaromVisibWave heightAir tempDewpointWater temp
2018-Apr-25 00:00N 50°00' E 177°00'37415.6 300 / 301004.0 5.4 3.0 2.0
2018-Apr-24 00:00N 49°06' E 167°30'48220.1 320 / 301003.010.8 10.0 2.0
2018-Apr-23 00:00N 46°18' E 156°18'0 0.0 270 / 301013.010.8 4.0 2.4
2018-Apr-22 18:00N 46°18' E 156°18'35719.9 320 / 301016.010.8 1.0 1.4
2018-Apr-22 00:00N 43°36' E 148°48'33919.6 050 / 201016.010.8 4.0 2.0
2018-Apr-21 06:42N 41°41' E 141°35'522.7
2018-Apr-21 06:28N 41°41' E 141°28'1021.3
2018-Apr-21 06:00N 41°39' E 141°14'1122.5
2018-Apr-21 05:30N 41°37' E 140°60'1122.9
2018-Apr-21 05:01N 41°33' E 140°46'1223.2
2018-Apr-21 04:31N 41°26' E 140°33'1223.1
2018-Apr-21 04:00N 41°20' E 140°20'57620.8
2018-Apr-20 00:19N 35°37' E 130°29'5620.1
2018-Apr-19 21:32N 35°03' E 129°36'121.4
2018-Apr-19 21:28N 35°02' E 129°34'1221.5
2018-Apr-19 20:56N 34°56' E 129°22'1021.3
2018-Apr-19 20:26N 34°49' E 129°12'1018.6
2018-Apr-19 19:53N 34°48' E 128°60'719.3
2018-Apr-19 19:30N 34°51' E 128°52'1310.0
2018-Apr-19 18:09N 35°04' E 128°49'0 1.3
2018-Apr-19 17:56N 35°04' E 128°50'0 0.0
2018-Apr-19 16:51N 35°04' E 128°50'0 0.0
2018-Apr-19 16:22N 35°04' E 128°50'0 0.0
2018-Apr-19 15:54N 35°04' E 128°50'0 0.0
2018-Apr-19 15:27N 35°04' E 128°50'0 0.0
2018-Apr-19 15:01N 35°04' E 128°50'0 0.0
2018-Apr-19 14:27N 35°04' E 128°50'0 0.0
2018-Apr-19 13:51N 35°04' E 128°50'0 0.0
2018-Apr-19 13:31N 35°04' E 128°50'0 0.0
2018-Apr-19 12:45N 35°04' E 128°50'0 0.0
2018-Apr-19 12:24N 35°04' E 128°50'0 0.0
2018-Apr-19 11:51N 35°04' E 128°50'0 0.0
2018-Apr-19 11:27N 35°04' E 128°50'0 0.0
2018-Apr-19 10:31N 35°04' E 128°50'0 0.0
2018-Apr-19 09:51N 35°04' E 128°50'0 0.0
2018-Apr-19 09:27N 35°04' E 128°50'0 0.0
2018-Apr-19 08:57N 35°04' E 128°50'0 0.0
2018-Apr-19 08:27N 35°04' E 128°50'0 0.0
2018-Apr-19 07:57N 35°04' E 128°50'0 0.0
2018-Apr-19 07:22N 35°04' E 128°50'0 0.0
2018-Apr-19 07:00N 35°04' E 128°50'0 0.0
2018-Apr-19 06:27N 35°04' E 128°50'0 0.0
2018-Apr-19 05:57N 35°04' E 128°50'0 0.0
2018-Apr-19 05:27N 35°04' E 128°50'0 0.0
2018-Apr-19 04:51N 35°04' E 128°50'0 0.0
2018-Apr-19 04:27N 35°04' E 128°50'0 0.0
2018-Apr-19 03:51N 35°04' E 128°50'0 0.0
2018-Apr-19 03:27N 35°04' E 128°50'0 0.0
2018-Apr-19 02:57N 35°04' E 128°50'4 4.8
2018-Apr-19 02:02N 34°60' E 128°48'1 8.9
2018-Apr-19 01:59N 34°59' E 128°49'8 7.3
2018-Apr-19 00:53N 34°52' E 128°51'2414.0
2018-Apr-18 23:09N 34°28' E 128°49'815.4
2018-Apr-18 22:39N 34°22' E 128°42'215.4
2018-Apr-18 22:30N 34°21' E 128°40'1315.5
2018-Apr-18 21:40N 34°11' E 128°30'315.9
2018-Apr-18 21:29N 34°09' E 128°27'815.9
2018-Apr-18 21:00N 34°02' E 128°22'816.4
2018-Apr-18 20:30N 33°56' E 128°16'816.1
2018-Apr-18 19:59N 33°49' E 128°10'816.3
2018-Apr-18 19:30N 33°43' E 128°05'1417.5
2018-Apr-18 18:43N 33°32' E 127°54'418.2
2018-Apr-18 18:29N 33°29' E 127°51'918.4
2018-Apr-18 18:00N 33°23' E 127°43'918.4
2018-Apr-18 17:30N 33°15' E 127°38'1018.2
2018-Apr-18 16:59N 33°07' E 127°31'918.2
2018-Apr-18 16:30N 33°00' E 127°24'918.0
2018-Apr-18 15:58N 32°53' E 127°17'4018.0
2018-Apr-18 13:45N 32°22' E 126°48'917.4
2018-Apr-18 13:14N 32°15' E 126°41'517.7
2018-Apr-18 12:58N 32°12' E 126°37'1017.6
2018-Apr-18 12:23N 32°03' E 126°30'49017.6
2018-Apr-17 08:35N 25°31' E 120°56'819.2
2018-Apr-17 08:10N 25°24' E 120°51'419.3
2018-Apr-17 07:58N 25°21' E 120°49'11017.6
2018-Apr-17 01:43N 23°42' E 119°55'419.1
2018-Apr-17 01:30N 23°38' E 119°55'1019.1
2018-Apr-17 00:59N 23°28' E 119°57'918.5
2018-Apr-17 00:30N 23°19' E 119°57'3017.3
2018-Apr-16 22:45N 22°49' E 119°59'518.0
2018-Apr-16 22:30N 22°45' E 120°02'918.4
2018-Apr-16 22:00N 22°39' E 120°09'816.1
2018-Apr-16 21:30N 22°33' E 120°14'5 9.7
2018-Apr-16 21:00N 22°33' E 120°20'0 0.2
2018-Apr-16 20:24N 22°33' E 120°20'0 0.0
2018-Apr-16 20:00N 22°33' E 120°20'0 0.0
2018-Apr-16 19:30N 22°33' E 120°20'0 0.0
2018-Apr-16 19:00N 22°33' E 120°20'0 0.0
2018-Apr-16 18:26N 22°33' E 120°20'0 0.0
2018-Apr-16 17:57N 22°33' E 120°20'0 0.0
2018-Apr-16 17:30N 22°33' E 120°20'0 0.0
2018-Apr-16 17:00N 22°33' E 120°20'0 0.0
2018-Apr-16 16:30N 22°33' E 120°20'0 0.0
2018-Apr-16 16:00N 22°33' E 120°20'0 0.0
2018-Apr-16 15:30N 22°33' E 120°20'0 0.0
2018-Apr-16 15:00N 22°33' E 120°20'0 0.0
2018-Apr-16 14:27N 22°33' E 120°20'0 0.0
2018-Apr-16 14:00N 22°33' E 120°20'0 0.0
2018-Apr-16 13:30N 22°33' E 120°20'0 0.0
2018-Apr-16 13:00N 22°33' E 120°20'0 0.0
2018-Apr-16 12:30N 22°33' E 120°20'0 0.0
2018-Apr-16 11:54N 22°33' E 120°20'0 0.0
2018-Apr-16 11:30N 22°33' E 120°20'0 0.0
2018-Apr-16 10:57N 22°33' E 120°20'0 0.0
2018-Apr-16 10:30N 22°33' E 120°20'0 0.3
2018-Apr-16 10:00N 22°33' E 120°20'3 6.9
2018-Apr-16 09:30N 22°32' E 120°16'611.9
2018-Apr-16 09:01N 22°30' E 120°10'1019.3
2018-Apr-16 08:30N 22°28' E 119°60'917.5
2018-Apr-16 08:00N 22°26' E 119°50'915.8
2018-Apr-16 07:27N 22°24' E 119°41'1217.6
2018-Apr-16 06:47N 22°21' E 119°29'  

Dump ship's entire track history